createdAt,value
2018-12-20T00:01:05.149Z,23.37
2018-12-20T00:03:33.358Z,24.80
2018-12-20T00:06:01.587Z,23.87
2018-12-20T00:08:29.720Z,23.70
2018-12-20T00:10:57.875Z,22.03
2018-12-20T00:13:26.121Z,21.77
2018-12-20T00:15:54.261Z,20.70
2018-12-20T00:18:22.376Z,19.53
2018-12-20T00:20:50.428Z,20.33
2018-12-20T00:23:18.464Z,18.43
2018-12-20T00:25:46.589Z,19.63
2018-12-20T00:28:14.718Z,19.67
2018-12-20T00:30:42.791Z,18.20
2018-12-20T00:33:11.146Z,17.73
2018-12-20T00:35:39.283Z,20.37
2018-12-20T00:38:07.333Z,18.10
2018-12-20T00:40:35.335Z,17.07
2018-12-20T00:43:03.437Z,17.90
2018-12-20T00:45:31.477Z,17.17
2018-12-20T00:47:59.413Z,16.20
2018-12-20T00:50:27.410Z,16.47
2018-12-20T00:52:55.510Z,16.70
2018-12-20T00:55:23.608Z,17.17
2018-12-20T00:57:51.751Z,16.47
2018-12-20T01:00:19.878Z,16.87
2018-12-20T01:02:55.093Z,16.90
2018-12-20T01:05:18.101Z,18.67
2018-12-20T01:08:00.826Z,17.40
2018-12-20T01:10:28.905Z,16.90
2018-12-20T01:12:57.004Z,14.53
2018-12-20T01:15:25.825Z,13.80
2018-12-20T01:17:53.960Z,13.47
2018-12-20T01:20:22.145Z,12.63
2018-12-20T01:22:50.159Z,14.83
2018-12-20T01:25:18.197Z,13.47
2018-12-20T01:27:46.236Z,12.70
2018-12-20T01:30:14.283Z,12.40
2018-12-20T01:32:42.404Z,11.20
2018-12-20T01:35:10.571Z,13.27
2018-12-20T01:37:38.544Z,11.43
2018-12-20T01:40:06.784Z,11.13
2018-12-20T01:42:34.801Z,10.60
2018-12-20T01:45:02.851Z,10.57
2018-12-20T01:47:30.803Z,10.37
2018-12-20T01:49:58.761Z,9.50
2018-12-20T01:52:26.708Z,9.53
2018-12-20T01:54:55.425Z,10.27
2018-12-20T01:57:23.566Z,10.40
2018-12-20T01:59:51.767Z,10.10
2018-12-20T02:02:19.948Z,10.00
2018-12-20T02:04:48.140Z,9.33
2018-12-20T02:07:16.202Z,11.07
2018-12-20T02:09:44.310Z,10.70
2018-12-20T02:12:12.431Z,11.40
2018-12-20T02:14:40.584Z,10.33
2018-12-20T02:17:08.656Z,10.00
2018-12-20T02:19:36.728Z,8.27
2018-12-20T02:22:04.791Z,8.40
2018-12-20T02:24:32.927Z,8.77
2018-12-20T02:27:00.986Z,7.30
2018-12-20T02:29:29.070Z,6.77
2018-12-20T02:32:00.252Z,7.23
2018-12-20T02:34:28.413Z,7.23
2018-12-20T02:36:56.410Z,7.20
2018-12-20T02:39:24.595Z,7.90
2018-12-20T02:41:52.762Z,7.10
2018-12-20T02:44:21.104Z,7.87
2018-12-20T02:46:49.194Z,7.47
2018-12-20T02:49:17.552Z,7.33
2018-12-20T02:51:45.949Z,7.97
2018-12-20T02:54:14.103Z,7.37
2018-12-20T02:56:42.114Z,8.37
2018-12-20T02:59:10.280Z,8.10
2018-12-20T03:01:38.437Z,7.80
2018-12-20T03:04:06.483Z,7.47
2018-12-20T03:06:34.436Z,7.50
2018-12-20T03:09:04.483Z,6.67
2018-12-20T03:11:32.883Z,6.13
2018-12-20T03:14:00.960Z,6.70
2018-12-20T03:16:29.086Z,7.43
2018-12-20T03:18:57.092Z,6.60
2018-12-20T03:21:25.067Z,7.47
2018-12-20T03:23:53.135Z,7.63
2018-12-20T03:26:21.145Z,7.30
2018-12-20T03:28:49.169Z,8.43
2018-12-20T03:31:17.664Z,8.77
2018-12-20T03:33:45.863Z,8.43
2018-12-20T03:36:14.146Z,9.67
2018-12-20T03:38:43.105Z,9.57
2018-12-20T03:41:11.147Z,10.50
2018-12-20T03:43:39.511Z,11.23
2018-12-20T03:46:07.669Z,11.20
2018-12-20T03:48:36.038Z,11.77
2018-12-20T03:51:04.209Z,11.80
2018-12-20T03:53:32.200Z,9.57
2018-12-20T03:56:00.381Z,10.77
2018-12-20T03:58:28.716Z,10.47
2018-12-20T04:00:56.824Z,10.97
2018-12-20T04:03:24.782Z,11.80
2018-12-20T04:05:52.805Z,11.87
2018-12-20T04:08:21.217Z,12.23
2018-12-20T04:10:49.381Z,12.07
2018-12-20T04:13:17.578Z,11.73
2018-12-20T04:15:45.715Z,11.47
2018-12-20T04:18:13.868Z,11.03
2018-12-20T04:20:41.924Z,11.13
2018-12-20T04:23:09.883Z,11.03
2018-12-20T04:25:38.080Z,10.97
2018-12-20T04:28:06.245Z,10.33
2018-12-20T04:30:34.312Z,10.33
2018-12-20T04:33:02.361Z,11.13
2018-12-20T04:35:30.347Z,11.90
2018-12-20T04:37:58.317Z,14.50
2018-12-20T04:40:57.029Z,15.10
2018-12-20T04:43:25.040Z,15.30
2018-12-20T04:45:53.154Z,16.87
2018-12-20T04:48:22.570Z,16.93
2018-12-20T04:50:50.636Z,17.77
2018-12-20T04:53:18.677Z,16.43
2018-12-20T04:55:46.851Z,17.67
2018-12-20T04:58:14.826Z,13.93
2018-12-20T05:00:42.857Z,13.77
2018-12-20T05:03:10.962Z,11.17
2018-12-20T05:05:38.976Z,11.43
2018-12-20T05:08:07.087Z,9.73
2018-12-20T05:10:35.262Z,10.97
2018-12-20T05:13:03.405Z,9.93
2018-12-20T05:15:31.706Z,10.10
2018-12-20T05:17:59.947Z,9.67
2018-12-20T05:20:28.303Z,8.47
2018-12-20T05:22:56.598Z,7.30
2018-12-20T05:25:24.799Z,7.13
2018-12-20T05:27:52.896Z,7.90
2018-12-20T05:30:20.920Z,6.90
2018-12-20T05:32:48.932Z,7.33
2018-12-20T05:35:17.145Z,9.77
2018-12-20T05:37:45.295Z,9.13
2018-12-20T05:40:13.752Z,8.77
2018-12-20T05:42:43.544Z,9.47
2018-12-20T05:45:12.226Z,9.00
2018-12-20T05:47:40.506Z,8.90
2018-12-20T05:50:08.612Z,8.83
2018-12-20T05:53:07.894Z,9.13
2018-12-20T05:55:36.868Z,10.07
2018-12-20T05:58:05.145Z,11.50
2018-12-20T06:00:33.474Z,12.03
2018-12-20T06:03:01.633Z,13.13
2018-12-20T06:05:29.749Z,13.60
2018-12-20T06:07:58.736Z,13.13
2018-12-20T06:10:27.909Z,12.37
2018-12-20T06:12:56.247Z,11.33
2018-12-20T06:15:24.382Z,11.17
2018-12-20T06:17:53.224Z,10.97
2018-12-20T06:20:21.574Z,11.03
2018-12-20T06:23:20.849Z,10.87
2018-12-20T06:25:48.817Z,9.87
2018-12-20T06:28:16.880Z,12.23
2018-12-20T06:30:44.803Z,11.47
2018-12-20T06:33:12.881Z,11.93
2018-12-20T06:35:40.899Z,12.33
2018-12-20T06:38:08.896Z,14.43
2018-12-20T06:40:37.197Z,15.23
2018-12-20T06:43:05.193Z,15.60
2018-12-20T06:45:33.174Z,14.93
2018-12-20T06:48:01.365Z,12.37
2018-12-20T06:50:29.530Z,13.43
2018-12-20T06:52:57.485Z,13.30
2018-12-20T06:55:25.679Z,13.07
2018-12-20T06:57:57.038Z,14.37
2018-12-20T07:00:25.532Z,12.73
2018-12-20T07:02:55.168Z,12.50
2018-12-20T07:05:30.388Z,15.47
2018-12-20T07:08:03.451Z,18.17
2018-12-20T07:10:34.277Z,17.27
2018-12-20T07:13:06.688Z,16.33
2018-12-20T07:15:36.057Z,18.00
2018-12-20T07:18:09.606Z,16.30
2018-12-20T07:20:39.004Z,15.43
2018-12-20T07:23:08.989Z,17.83
2018-12-20T07:25:38.587Z,15.47
2018-12-20T07:28:08.293Z,13.50
2018-12-20T07:30:40.079Z,14.70
2018-12-20T07:33:09.946Z,13.97
2018-12-20T07:35:40.720Z,17.33
2018-12-20T07:38:10.001Z,21.10
2018-12-20T07:40:41.705Z,19.80
2018-12-20T07:43:10.515Z,18.17
2018-12-20T07:45:39.609Z,17.73
2018-12-20T07:48:08.183Z,18.87
2018-12-20T07:50:36.956Z,17.10
2018-12-20T07:53:05.872Z,20.77
2018-12-20T07:55:34.589Z,21.50
2018-12-20T07:58:03.748Z,20.83
2018-12-20T08:00:34.298Z,19.43
2018-12-20T08:03:03.478Z,23.03
2018-12-20T08:05:31.808Z,25.03
2018-12-20T08:08:02.914Z,22.87
2018-12-20T08:10:31.834Z,19.07
2018-12-20T08:13:00.741Z,18.73
2018-12-20T08:15:31.423Z,16.37
2018-12-20T08:18:01.126Z,17.87
2018-12-20T08:20:32.125Z,15.83
2018-12-20T08:23:02.957Z,18.17
2018-12-20T08:25:31.960Z,21.97
2018-12-20T08:28:01.180Z,19.27
2018-12-20T08:30:31.922Z,19.40
2018-12-20T08:33:01.448Z,25.43
2018-12-20T08:35:34.266Z,20.63
2018-12-20T08:38:03.944Z,22.20
2018-12-20T08:40:32.722Z,23.07
2018-12-20T08:43:07.281Z,22.47
2018-12-20T08:45:37.501Z,20.30
2018-12-20T08:48:09.323Z,19.03
2018-12-20T08:50:52.819Z,20.37
2018-12-20T08:53:28.685Z,19.37
2018-12-20T08:56:01.267Z,21.63
2018-12-20T08:58:33.375Z,23.07
2018-12-20T09:01:05.786Z,24.90
2018-12-20T09:03:35.316Z,25.07
2018-12-20T09:06:09.617Z,20.53
2018-12-20T09:08:43.423Z,19.40
2018-12-20T09:11:14.697Z,19.87
2018-12-20T09:13:45.649Z,19.93
2018-12-20T09:16:16.405Z,21.17
2018-12-20T09:18:52.139Z,21.57
2018-12-20T09:21:22.623Z,20.10
2018-12-20T09:23:51.401Z,16.83
2018-12-20T09:26:20.076Z,18.37
2018-12-20T09:28:48.593Z,15.23
2018-12-20T09:31:17.264Z,13.57
2018-12-20T09:33:45.663Z,14.00
2018-12-20T09:36:14.661Z,13.17
2018-12-20T09:38:43.468Z,15.23
2018-12-20T09:41:13.144Z,14.50
2018-12-20T09:43:41.844Z,13.43
2018-12-20T09:46:11.629Z,10.40
2018-12-20T09:48:41.418Z,10.27
2018-12-20T09:51:12.433Z,11.43
2018-12-20T09:53:42.015Z,12.07
2018-12-20T09:56:12.093Z,11.40
2018-12-20T09:58:42.097Z,10.20
2018-12-20T10:01:10.768Z,10.77
2018-12-20T10:03:38.906Z,12.67
2018-12-20T10:06:07.294Z,12.90
2018-12-20T10:08:35.512Z,12.37
2018-12-20T10:11:04.067Z,12.43
2018-12-20T10:13:33.684Z,12.97
2018-12-20T10:16:02.964Z,11.97
2018-12-20T10:18:31.858Z,12.30
2018-12-20T10:21:00.309Z,12.50
2018-12-20T10:23:30.058Z,12.57
2018-12-20T10:25:58.750Z,12.40
2018-12-20T10:28:27.467Z,12.30
2018-12-20T10:30:55.939Z,11.97
2018-12-20T10:33:26.793Z,12.50
2018-12-20T10:35:54.715Z,12.47
2018-12-20T10:38:23.466Z,10.67
2018-12-20T10:40:51.962Z,10.90
2018-12-20T10:43:23.739Z,10.53
2018-12-20T10:45:54.216Z,10.47
2018-12-20T10:48:25.269Z,9.83
2018-12-20T10:50:54.466Z,10.27
2018-12-20T10:53:24.755Z,11.22
2018-12-20T10:55:54.898Z,10.77
2018-12-20T10:58:26.079Z,10.23
2018-12-20T11:00:59.895Z,9.00
2018-12-20T11:03:34.062Z,9.20
2018-12-20T11:06:06.722Z,10.82
2018-12-20T11:08:41.142Z,11.13
2018-12-20T11:11:15.947Z,11.73
2018-12-20T11:13:45.856Z,11.57
2018-12-20T11:16:15.459Z,10.80
2018-12-20T11:18:48.073Z,12.07
2018-12-20T11:21:17.842Z,10.40
2018-12-20T11:23:47.831Z,10.33
2018-12-20T11:26:17.008Z,8.37
2018-12-20T11:28:45.851Z,6.33
2018-12-20T11:31:14.984Z,3.53
2018-12-20T11:33:49.028Z,5.17
2018-12-20T11:36:18.262Z,4.77
2018-12-20T11:38:48.517Z,3.43
2018-12-20T11:41:17.658Z,3.40
2018-12-20T11:43:47.780Z,3.17
2018-12-20T11:46:17.988Z,3.13
2018-12-20T11:48:47.284Z,3.47
2018-12-20T11:51:23.554Z,4.13
2018-12-20T11:54:03.031Z,4.30
2018-12-20T11:56:35.828Z,11.00
2018-12-20T11:59:04.591Z,12.83
2018-12-20T12:01:32.571Z,12.97
2018-12-20T12:04:00.509Z,13.73
2018-12-20T12:06:28.439Z,13.10
2018-12-20T12:08:56.469Z,11.87
2018-12-20T12:11:24.391Z,13.22
2018-12-20T12:14:04.799Z,12.13
2018-12-20T12:16:38.006Z,15.10
2018-12-20T12:19:06.836Z,14.57
2018-12-20T12:21:35.386Z,10.70
2018-12-20T12:24:05.293Z,11.03
2018-12-20T12:26:33.510Z,11.00
2018-12-20T12:29:02.433Z,10.83
2018-12-20T12:31:31.472Z,10.90
2018-12-20T12:34:00.196Z,12.80
2018-12-20T12:36:29.161Z,10.53
2018-12-20T12:38:58.144Z,9.00
2018-12-20T12:41:26.964Z,8.53
2018-12-20T12:43:55.792Z,8.70
2018-12-20T12:46:24.488Z,9.30
2018-12-20T12:48:53.778Z,9.40
2018-12-20T12:51:22.856Z,7.20
2018-12-20T12:53:51.916Z,7.90
2018-12-20T12:56:22.166Z,8.03
2018-12-20T12:58:54.461Z,7.20
2018-12-20T13:01:23.754Z,7.80
2018-12-20T13:03:52.821Z,10.33
2018-12-20T13:06:22.756Z,9.70
2018-12-20T13:08:52.454Z,7.30
2018-12-20T13:11:21.700Z,6.13
2018-12-20T13:13:52.250Z,6.00
2018-12-20T13:16:22.143Z,5.00
2018-12-20T13:18:56.153Z,5.87
2018-12-20T13:21:24.111Z,5.47
2018-12-20T13:23:52.207Z,5.83
2018-12-20T13:26:22.216Z,7.10
2018-12-20T13:28:51.975Z,5.67
2018-12-20T13:31:20.019Z,5.47
2018-12-20T13:33:52.105Z,5.00
2018-12-20T13:36:20.538Z,5.57
2018-12-20T13:38:55.303Z,4.53
2018-12-20T13:41:25.540Z,5.70
2018-12-20T13:43:54.056Z,7.97
2018-12-20T13:46:23.775Z,7.93
2018-12-20T13:48:52.823Z,6.07
2018-12-20T13:51:20.876Z,5.90
2018-12-20T13:53:50.639Z,7.80
2018-12-20T13:56:26.689Z,9.30
2018-12-20T13:59:03.245Z,9.80
2018-12-20T14:01:26.727Z,7.63
2018-12-20T14:03:57.186Z,5.77
2018-12-20T14:06:25.340Z,5.07
2018-12-20T14:08:53.368Z,5.10
2018-12-20T14:11:21.320Z,5.43
2018-12-20T14:13:49.281Z,4.93
2018-12-20T14:16:18.008Z,3.73
2018-12-20T14:18:45.951Z,4.40
2018-12-20T14:21:13.917Z,5.00
2018-12-20T14:23:41.856Z,4.53
2018-12-20T14:26:09.848Z,4.47
2018-12-20T14:28:37.832Z,4.87
2018-12-20T14:31:06.623Z,7.73
2018-12-20T14:33:34.681Z,7.27
2018-12-20T14:36:02.756Z,5.40
2018-12-20T14:38:31.449Z,15.00
2018-12-20T14:40:59.410Z,9.77
2018-12-20T14:43:27.535Z,7.13
2018-12-20T14:45:55.548Z,6.63
2018-12-20T14:48:30.265Z,20.93
2018-12-20T14:50:58.215Z,16.83
2018-12-20T14:53:26.183Z,10.87
2018-12-20T14:55:54.133Z,8.13
2018-12-20T14:58:22.085Z,21.43
2018-12-20T15:00:50.052Z,7.00
2018-12-20T15:03:17.959Z,4.70
2018-12-20T15:05:45.911Z,5.07
2018-12-20T15:08:13.851Z,5.53
2018-12-20T15:10:41.781Z,7.80
2018-12-20T15:13:09.756Z,8.43
2018-12-20T15:15:37.691Z,7.57
2018-12-20T15:18:05.660Z,6.50
2018-12-20T15:20:40.556Z,6.33
2018-12-20T15:23:03.641Z,6.93
2018-12-20T15:25:31.590Z,5.93
2018-12-20T15:27:59.572Z,5.23
2018-12-20T15:30:28.656Z,7.37
2018-12-20T15:32:56.672Z,6.37
2018-12-20T15:35:24.596Z,5.87
2018-12-20T15:37:52.539Z,5.43
2018-12-20T15:40:20.481Z,6.00
2018-12-20T15:42:48.411Z,5.03
2018-12-20T15:45:16.339Z,6.60
2018-12-20T15:47:44.301Z,6.10
2018-12-20T15:50:12.321Z,6.77
2018-12-20T15:52:40.321Z,6.87
2018-12-20T15:55:08.245Z,8.73
2018-12-20T15:57:36.209Z,9.50
2018-12-20T16:00:04.781Z,10.50
2018-12-20T16:02:33.003Z,10.33
2018-12-20T16:05:01.037Z,11.53
2018-12-20T16:07:29.190Z,8.03
2018-12-20T16:09:57.128Z,10.67
2018-12-20T16:12:26.416Z,9.83
2018-12-20T16:14:54.367Z,7.53
2018-12-20T16:17:37.140Z,5.97
2018-12-20T16:20:06.441Z,7.37
2018-12-20T16:22:34.363Z,7.37
2018-12-20T16:25:02.348Z,7.67
2018-12-20T16:27:30.431Z,16.73
2018-12-20T16:29:58.356Z,10.33
2018-12-20T16:32:26.312Z,8.97
2018-12-20T16:34:54.266Z,10.03
2018-12-20T16:37:22.273Z,8.27
2018-12-20T16:39:50.185Z,8.10
2018-12-20T16:42:18.151Z,9.43
2018-12-20T16:44:52.841Z,8.63
2018-12-20T16:47:20.788Z,8.10
2018-12-20T16:49:48.728Z,10.33
2018-12-20T16:52:16.659Z,10.30
2018-12-20T16:54:44.627Z,11.40
2018-12-20T16:57:12.654Z,10.93
2018-12-20T16:59:41.231Z,9.00
2018-12-20T17:02:09.180Z,8.83
2018-12-20T17:04:37.133Z,7.93
2018-12-20T17:07:05.884Z,9.13
2018-12-20T17:09:34.101Z,8.53
2018-12-20T17:12:02.048Z,9.60
2018-12-20T17:14:30.003Z,14.53
2018-12-20T17:16:57.937Z,17.47
2018-12-20T17:19:25.860Z,15.83
2018-12-20T17:21:53.803Z,13.47
2018-12-20T17:24:21.735Z,16.13
2018-12-20T17:26:49.700Z,17.27
2018-12-20T17:29:17.638Z,16.67
2018-12-20T17:31:45.592Z,14.97
2018-12-20T17:34:13.574Z,16.23
2018-12-20T17:36:41.508Z,16.23
2018-12-20T17:39:09.737Z,14.80
2018-12-20T17:41:37.824Z,15.37
2018-12-20T17:44:06.461Z,17.23
2018-12-20T17:46:36.508Z,16.60
2018-12-20T17:49:04.452Z,18.93
2018-12-20T17:51:32.377Z,22.70
2018-12-20T17:54:00.308Z,21.80
2018-12-20T17:56:28.247Z,21.00
2018-12-20T17:58:56.201Z,23.00
2018-12-20T18:01:24.150Z,22.57
2018-12-20T18:03:52.106Z,23.30
2018-12-20T18:06:20.081Z,25.47
2018-12-20T18:08:47.998Z,24.87
2018-12-20T18:11:16.475Z,21.40
2018-12-20T18:13:44.485Z,23.60
2018-12-20T18:16:12.443Z,26.23
2018-12-20T18:18:40.373Z,32.77
2018-12-20T18:21:08.303Z,38.87
2018-12-20T18:23:36.828Z,35.53
2018-12-20T18:26:05.167Z,35.73
2018-12-20T18:28:33.089Z,46.47
2018-12-20T18:31:01.038Z,22.47
2018-12-20T18:33:28.988Z,26.73
2018-12-20T18:35:57.009Z,23.03
2018-12-20T18:38:24.936Z,23.70
2018-12-20T18:40:53.007Z,25.60
2018-12-20T18:43:21.028Z,23.97
2018-12-20T18:45:49.067Z,22.93
2018-12-20T18:48:16.988Z,23.83
2018-12-20T18:50:44.956Z,28.05
2018-12-20T18:53:12.972Z,22.80
2018-12-20T18:55:40.902Z,34.13
2018-12-20T18:58:08.880Z,33.37
2018-12-20T19:00:37.067Z,29.98
2018-12-20T19:03:05.034Z,30.43
2018-12-20T19:05:33.188Z,25.27
2018-12-20T19:08:01.184Z,30.20
2018-12-20T19:10:29.220Z,34.53
2018-12-20T19:12:57.148Z,26.23
2018-12-20T19:15:25.181Z,26.20
2018-12-20T19:17:53.294Z,46.97
2018-12-20T19:20:21.340Z,47.17
2018-12-20T19:22:49.286Z,51.70
2018-12-20T19:25:17.233Z,40.07
2018-12-20T19:27:45.191Z,45.33
2018-12-20T19:30:14.055Z,45.60
2018-12-20T19:32:42.045Z,44.80
2018-12-20T19:37:48.052Z,38.93
2018-12-20T19:40:16.009Z,36.80
2018-12-20T19:42:43.961Z,31.40
2018-12-20T19:45:11.924Z,30.00
2018-12-20T19:47:43.076Z,31.07
2018-12-20T19:50:11.283Z,35.37
2018-12-20T19:52:39.273Z,37.07
2018-12-20T19:55:07.333Z,32.17
2018-12-20T19:57:35.291Z,29.83
2018-12-20T20:00:05.692Z,26.93
2018-12-20T20:02:33.687Z,30.57
2018-12-20T20:05:01.647Z,33.33
2018-12-20T20:07:29.649Z,32.87
2018-12-20T20:09:57.651Z,33.53
2018-12-20T20:12:25.583Z,47.75
2018-12-20T20:14:53.580Z,38.30
2018-12-20T20:17:21.564Z,36.00
2018-12-20T20:19:49.516Z,33.07
2018-12-20T20:22:17.457Z,37.27
2018-12-20T20:24:45.476Z,34.83
2018-12-20T20:27:13.408Z,32.47
2018-12-20T20:29:41.882Z,31.93
2018-12-20T20:32:09.913Z,31.33
2018-12-20T20:34:38.031Z,31.63
2018-12-20T20:37:06.100Z,32.43
2018-12-20T20:39:34.153Z,30.67
2018-12-20T20:42:02.181Z,31.23
2018-12-20T20:44:30.210Z,25.57
2018-12-20T20:46:58.178Z,27.13
2018-12-20T20:49:26.127Z,21.90
2018-12-20T20:51:54.093Z,19.83
2018-12-20T20:54:22.033Z,20.40
2018-12-20T20:56:50.363Z,20.60
2018-12-20T20:59:18.319Z,19.93
2018-12-20T21:01:46.262Z,20.13
2018-12-20T21:04:14.713Z,17.60
2018-12-20T21:06:47.022Z,17.90
2018-12-20T21:09:12.920Z,18.67
2018-12-20T21:11:40.864Z,17.20
2018-12-20T21:14:08.809Z,19.23
2018-12-20T21:16:36.785Z,27.00
2018-12-20T21:19:04.756Z,25.87
2018-12-20T21:21:36.146Z,23.43
2018-12-20T21:24:04.105Z,23.40
2018-12-20T21:26:32.149Z,23.47
2018-12-20T21:29:00.177Z,25.60
2018-12-20T21:31:28.191Z,25.03
2018-12-20T21:33:56.123Z,27.80
2018-12-20T21:36:24.103Z,27.43
2018-12-20T21:38:52.107Z,28.07
2018-12-20T21:41:20.087Z,30.00
2018-12-20T21:43:48.035Z,29.27
2018-12-20T21:46:16.044Z,30.17
2018-12-20T21:48:43.991Z,29.73
2018-12-20T21:51:12.015Z,30.80
2018-12-20T21:53:40.060Z,29.70
2018-12-20T21:56:08.028Z,29.03
2018-12-20T21:58:36.007Z,28.50
2018-12-20T22:01:04.082Z,33.10
2018-12-20T22:03:32.025Z,36.80
2018-12-20T22:06:26.705Z,35.13
2018-12-20T22:08:54.768Z,32.70
2018-12-20T22:11:22.738Z,34.47
2018-12-20T22:13:50.680Z,31.00
2018-12-20T22:16:18.593Z,26.00
2018-12-20T22:18:46.547Z,29.43
2018-12-20T22:21:14.473Z,30.17
2018-12-20T22:23:42.430Z,31.80
2018-12-20T22:26:10.367Z,33.17
2018-12-20T22:28:38.337Z,28.47
2018-12-20T22:31:06.361Z,30.00
2018-12-20T22:33:34.319Z,28.73
2018-12-20T22:36:02.254Z,27.63
2018-12-20T22:38:30.214Z,24.10
2018-12-20T22:40:58.548Z,27.33
2018-12-20T22:43:26.459Z,26.03
2018-12-20T22:45:54.469Z,27.23
2018-12-20T22:48:22.419Z,26.27
2018-12-20T22:50:55.840Z,26.30
2018-12-20T22:53:21.242Z,26.73
2018-12-20T22:55:49.192Z,28.43
2018-12-20T22:58:17.172Z,25.37
2018-12-20T23:00:49.717Z,26.07
2018-12-20T23:06:16.375Z,28.17
2018-12-20T23:08:44.341Z,26.80
2018-12-20T23:11:12.291Z,26.80
2018-12-20T23:13:40.214Z,26.57
2018-12-20T23:16:08.162Z,24.23
2018-12-20T23:18:36.121Z,22.73
2018-12-20T23:21:05.095Z,24.63
2018-12-20T23:23:34.003Z,21.47
2018-12-20T23:26:01.961Z,22.77
2018-12-20T23:28:30.012Z,21.63
2018-12-20T23:30:57.961Z,21.73
2018-12-20T23:33:25.926Z,20.97
2018-12-20T23:35:54.717Z,20.70
2018-12-20T23:38:22.694Z,20.23
2018-12-20T23:40:50.799Z,19.67
2018-12-20T23:43:18.813Z,20.30
2018-12-20T23:45:46.801Z,19.37
2018-12-20T23:48:14.744Z,17.37
2018-12-20T23:50:42.689Z,21.97
2018-12-20T23:53:10.657Z,19.67
2018-12-20T23:55:38.651Z,19.60
2018-12-20T23:58:06.585Z,18.77
